createdAt,value
2022-09-01T00:00:53.234Z,17.47
2022-09-01T00:03:25.013Z,17.47
2022-09-01T00:05:57.576Z,17.43
2022-09-01T00:08:28.293Z,17.39
2022-09-01T00:10:59.106Z,17.30
2022-09-01T00:13:33.746Z,17.27
2022-09-01T00:16:06.992Z,17.26
2022-09-01T00:18:38.094Z,17.27
2022-09-01T00:21:08.695Z,17.26
2022-09-01T00:23:40.617Z,17.26
2022-09-01T00:26:11.755Z,17.23
2022-09-01T00:28:42.954Z,17.19
2022-09-01T00:31:15.451Z,17.15
2022-09-01T00:33:46.435Z,17.09
2022-09-01T00:36:18.883Z,17.06
2022-09-01T00:38:51.206Z,17.00
2022-09-01T00:41:26.513Z,16.94
2022-09-01T00:44:07.954Z,16.91
2022-09-01T00:46:51.083Z,16.92
2022-09-01T00:49:41.314Z,16.90
2022-09-01T00:52:17.984Z,16.71
2022-09-01T00:54:55.914Z,16.57
2022-09-01T00:57:28.044Z,16.53
2022-09-01T01:00:03.994Z,16.54
2022-09-01T01:02:36.378Z,16.58
2022-09-01T01:05:08.629Z,16.60
2022-09-01T01:07:48.017Z,16.60
2022-09-01T01:10:23.682Z,16.53
2022-09-01T01:12:54.613Z,16.40
2022-09-01T01:15:25.473Z,16.29
2022-09-01T01:17:59.582Z,16.25
2022-09-01T01:21:04.417Z,16.26
2022-09-01T01:23:47.544Z,16.27
2022-09-01T01:26:18.497Z,16.30
2022-09-01T01:28:49.826Z,16.32
2022-09-01T01:31:23.431Z,16.32
2022-09-01T01:33:57.254Z,16.33
2022-09-01T01:36:36.366Z,16.33
2022-09-01T01:39:14.129Z,16.30
2022-09-01T01:41:49.356Z,16.26
2022-09-01T01:44:28.510Z,16.21
2022-09-01T01:47:10.272Z,16.16
2022-09-01T01:49:43.895Z,16.13
2022-09-01T01:52:18.525Z,16.12
2022-09-01T01:54:50.045Z,16.13
2022-09-01T01:57:20.764Z,16.11
2022-09-01T01:59:51.387Z,16.11
2022-09-01T02:02:22.234Z,16.11
2022-09-01T02:04:53.983Z,16.11
2022-09-01T02:07:24.806Z,16.07
2022-09-01T02:09:55.795Z,16.02
2022-09-01T02:12:26.727Z,15.91
2022-09-01T02:15:00.915Z,15.79
2022-09-01T02:18:06.075Z,15.72
2022-09-01T02:20:48.195Z,15.71
2022-09-01T02:23:40.704Z,15.71
2022-09-01T02:26:17.494Z,15.68
2022-09-01T02:28:55.155Z,15.66
2022-09-01T02:31:30.115Z,15.66
2022-09-01T02:34:04.304Z,15.68
2022-09-01T02:36:35.683Z,15.72
2022-09-01T02:39:09.615Z,15.72
2022-09-01T02:41:43.349Z,15.72
2022-09-01T02:44:15.168Z,15.66
2022-09-01T02:46:47.904Z,15.66
2022-09-01T02:49:29.054Z,15.63
2022-09-01T02:52:02.082Z,15.59
2022-09-01T02:54:34.673Z,15.55
2022-09-01T02:57:05.844Z,15.53
2022-09-01T02:59:41.823Z,15.52
2022-09-01T03:02:14.378Z,15.52
2022-09-01T03:04:45.982Z,15.53
2022-09-01T03:07:18.794Z,15.57
2022-09-01T03:09:50.154Z,15.56
2022-09-01T03:12:22.412Z,15.51
2022-09-01T03:14:53.287Z,15.46
2022-09-01T03:17:24.224Z,15.46
2022-09-01T03:19:55.194Z,15.41
2022-09-01T03:22:27.492Z,15.31
2022-09-01T03:24:58.296Z,15.22
2022-09-01T03:27:29.167Z,15.21
2022-09-01T03:29:59.914Z,15.26
2022-09-01T03:32:32.994Z,15.31
2022-09-01T03:35:04.236Z,15.31
2022-09-01T03:37:36.695Z,15.32
2022-09-01T03:40:10.824Z,15.35
2022-09-01T03:42:42.585Z,15.36
2022-09-01T03:45:16.462Z,15.34
2022-09-01T03:47:47.774Z,15.28
2022-09-01T03:50:22.105Z,15.20
2022-09-01T03:52:59.683Z,15.16
2022-09-01T03:55:34.765Z,15.13
2022-09-01T03:58:12.277Z,15.11
2022-09-01T04:00:48.314Z,15.07
2022-09-01T04:03:28.770Z,15.04
2022-09-01T04:06:01.734Z,14.99
2022-09-01T04:08:33.217Z,14.97
2022-09-01T04:11:07.396Z,15.00
2022-09-01T04:13:41.382Z,15.04
2022-09-01T04:17:02.592Z,15.08
2022-09-01T04:19:39.854Z,15.07
2022-09-01T04:22:14.882Z,15.05
2022-09-01T04:24:47.455Z,15.05
2022-09-01T04:27:23.435Z,15.05
2022-09-01T04:29:57.533Z,15.04
2022-09-01T04:32:31.285Z,15.01
2022-09-01T04:35:07.415Z,15.00
2022-09-01T04:37:38.235Z,15.03
2022-09-01T04:40:10.976Z,14.97
2022-09-01T04:42:42.483Z,14.87
2022-09-01T04:45:17.414Z,14.86
2022-09-01T04:47:51.452Z,14.88
2022-09-01T04:50:22.671Z,14.90
2022-09-01T04:53:12.755Z,14.86
2022-09-01T04:55:50.218Z,14.86
2022-09-01T04:58:23.481Z,14.90
2022-09-01T05:00:56.309Z,14.94
2022-09-01T05:03:28.540Z,14.97
2022-09-01T05:06:09.264Z,15.00
2022-09-01T05:08:40.571Z,15.04
2022-09-01T05:11:20.468Z,15.07
2022-09-01T05:13:58.055Z,15.10
2022-09-01T05:16:29.899Z,15.14
2022-09-01T05:19:02.104Z,15.19
2022-09-01T05:21:40.666Z,15.20
2022-09-01T05:24:11.255Z,15.23
2022-09-01T05:26:47.429Z,15.24
2022-09-01T05:29:19.468Z,15.28
2022-09-01T05:31:53.083Z,15.34
2022-09-01T05:34:53.864Z,15.41
2022-09-01T05:37:39.053Z,15.43
2022-09-01T05:40:23.514Z,15.51
2022-09-01T05:43:06.802Z,15.56
2022-09-01T05:46:03.312Z,15.63
2022-09-01T05:48:40.630Z,15.72
2022-09-01T05:51:40.398Z,15.77
2022-09-01T05:54:11.239Z,15.83
2022-09-01T05:56:44.374Z,15.88
2022-09-01T05:59:23.526Z,15.91
2022-09-01T06:01:57.482Z,15.95
2022-09-01T06:04:30.755Z,16.02
2022-09-01T06:07:09.616Z,16.07
2022-09-01T06:09:50.078Z,16.11
2022-09-01T06:12:24.210Z,16.12
2022-09-01T06:14:56.715Z,16.15
2022-09-01T06:17:35.570Z,16.20
2022-09-01T06:20:11.137Z,16.24
2022-09-01T06:22:48.161Z,16.27
2022-09-01T06:25:21.745Z,16.30
2022-09-01T06:27:54.606Z,16.31
2022-09-01T06:30:27.059Z,16.34
2022-09-01T06:33:14.523Z,16.37
2022-09-01T06:36:10.106Z,16.41
2022-09-01T06:38:53.595Z,16.44
2022-09-01T06:41:34.067Z,16.49
2022-09-01T06:44:41.941Z,16.50
2022-09-01T06:47:15.822Z,16.56
2022-09-01T06:49:46.423Z,16.62
2022-09-01T06:52:24.414Z,16.68
2022-09-01T06:54:56.481Z,16.72
2022-09-01T07:00:21.327Z,16.80
2022-09-01T07:02:58.748Z,16.82
2022-09-01T07:06:02.590Z,16.79
2022-09-01T07:14:34.046Z,16.91
2022-09-01T07:19:56.953Z,17.10
2022-09-01T07:22:36.140Z,17.17
2022-09-01T07:25:13.381Z,17.21
2022-09-01T07:28:20.649Z,17.29
2022-09-01T07:30:56.890Z,17.32
2022-09-01T07:33:48.028Z,17.29
2022-09-01T07:36:28.957Z,17.26
2022-09-01T07:45:30.176Z,17.89
2022-09-01T07:48:06.835Z,18.06
2022-09-01T07:53:39.403Z,18.43
2022-09-01T07:56:16.002Z,18.46
2022-09-01T07:59:02.709Z,18.42
2022-09-01T08:01:45.766Z,18.47
2022-09-01T08:04:17.256Z,18.59
2022-09-01T08:07:02.094Z,18.61
2022-09-01T08:10:01.251Z,18.71
2022-09-01T08:12:57.805Z,18.80
2022-09-01T08:18:49.402Z,19.05
2022-09-01T08:21:45.911Z,19.26
2022-09-01T08:24:48.003Z,19.43
2022-09-01T08:27:41.288Z,19.49
2022-09-01T08:30:34.953Z,19.45
2022-09-01T08:33:17.961Z,19.42
2022-09-01T08:36:10.968Z,19.39
2022-09-01T08:39:04.986Z,19.32
2022-09-01T08:42:36.033Z,19.31
2022-09-01T08:45:35.116Z,19.49
2022-09-01T08:49:24.217Z,19.70
2022-09-01T08:52:04.867Z,19.85
2022-09-01T08:55:01.698Z,19.94
2022-09-01T08:58:07.075Z,20.12
2022-09-01T09:01:01.715Z,20.14
2022-09-01T09:04:02.107Z,20.14
2022-09-01T09:06:55.930Z,20.03
2022-09-01T09:09:42.013Z,19.85
2022-09-01T09:12:56.526Z,19.69
2022-09-01T09:16:07.246Z,19.59
2022-09-01T09:19:01.594Z,19.59
2022-09-01T09:21:54.305Z,19.72
2022-09-01T09:24:53.102Z,19.97
2022-09-01T09:27:35.954Z,20.00
2022-09-01T09:30:21.790Z,19.88
2022-09-01T09:36:12.846Z,19.69
2022-09-01T09:38:56.874Z,19.59
2022-09-01T09:41:44.001Z,19.50
2022-09-01T09:44:41.295Z,19.47
2022-09-01T09:47:49.700Z,19.52
2022-09-01T09:50:44.521Z,19.52
2022-09-01T09:53:49.946Z,19.57
2022-09-01T09:56:33.146Z,19.75
2022-09-01T09:59:39.565Z,19.88
2022-09-01T10:02:59.987Z,19.80
2022-09-01T10:05:54.718Z,19.76
2022-09-01T10:08:30.909Z,19.84
2022-09-01T10:11:02.922Z,19.91
2022-09-01T10:13:37.106Z,20.06
2022-09-01T10:16:23.046Z,20.23
2022-09-01T10:19:01.366Z,20.51
2022-09-01T10:21:45.207Z,20.71
2022-09-01T10:24:33.963Z,20.85
2022-09-01T10:27:14.795Z,21.02
2022-09-01T10:30:12.138Z,21.17
2022-09-01T10:33:15.842Z,21.23
2022-09-01T10:36:18.900Z,21.27
2022-09-01T10:39:15.862Z,20.97
2022-09-01T10:42:07.960Z,20.98
2022-09-01T10:45:04.905Z,21.23
2022-09-01T10:47:44.705Z,21.51
2022-09-01T10:50:36.204Z,21.68
2022-09-01T10:53:16.985Z,21.84
2022-09-01T10:56:35.598Z,21.95
2022-09-01T10:59:44.318Z,21.97
2022-09-01T11:02:42.332Z,21.79
2022-09-01T11:05:32.660Z,21.60
2022-09-01T11:08:17.748Z,21.39
2022-09-01T11:11:10.860Z,21.28
2022-09-01T11:13:55.871Z,21.13
2022-09-01T11:16:47.801Z,20.79
2022-09-01T11:19:44.678Z,20.47
2022-09-01T11:22:15.458Z,20.24
2022-09-01T11:25:00.337Z,20.06
2022-09-01T11:27:51.173Z,19.93
2022-09-01T11:30:57.005Z,19.79
2022-09-01T11:33:49.326Z,19.64
2022-09-01T11:36:59.486Z,19.58
2022-09-01T11:39:52.118Z,19.60
2022-09-01T11:42:49.741Z,19.64
2022-09-01T11:45:33.495Z,19.67
2022-09-01T11:48:14.265Z,19.69
2022-09-01T11:50:45.494Z,19.74
2022-09-01T11:53:24.837Z,19.81
2022-09-01T11:55:58.646Z,19.89
2022-09-01T11:58:29.543Z,19.91
2022-09-01T12:01:20.424Z,19.93
2022-09-01T12:04:09.799Z,20.01
2022-09-01T12:06:51.852Z,20.03
2022-09-01T12:09:43.856Z,20.08
2022-09-01T12:12:32.514Z,20.13
2022-09-01T12:15:11.445Z,20.29
2022-09-01T12:17:47.951Z,20.44
2022-09-01T12:20:28.086Z,20.48
2022-09-01T12:23:02.884Z,20.56
2022-09-01T12:25:36.687Z,20.62
2022-09-01T12:36:32.241Z,20.22
2022-09-01T12:39:26.717Z,20.11
2022-09-01T12:42:12.822Z,20.07
2022-09-01T12:45:07.185Z,20.06
2022-09-01T12:47:53.773Z,20.08
2022-09-01T12:50:46.904Z,20.12
2022-09-01T12:53:42.560Z,20.13
2022-09-01T12:56:32.668Z,20.17
2022-09-01T12:59:26.177Z,20.22
2022-09-01T13:02:38.245Z,20.22
2022-09-01T13:05:42.720Z,20.19
2022-09-01T13:08:18.324Z,20.22
2022-09-01T13:11:11.713Z,20.25
2022-09-01T13:13:56.375Z,20.29
2022-09-01T13:16:28.072Z,20.28
2022-09-01T13:19:11.675Z,20.25
2022-09-01T13:21:56.875Z,20.19
2022-09-01T13:24:45.945Z,20.20
2022-09-01T13:27:21.307Z,20.17
2022-09-01T13:29:55.637Z,20.19
2022-09-01T13:32:27.049Z,20.18
2022-09-01T13:35:10.850Z,20.19
2022-09-01T13:37:48.353Z,20.23
2022-09-01T13:40:24.695Z,20.25
2022-09-01T13:43:06.544Z,20.34
2022-09-01T13:45:38.546Z,20.39
2022-09-01T13:48:17.588Z,20.42
2022-09-01T13:53:41.825Z,20.47
2022-09-01T13:56:12.513Z,20.50
2022-09-01T13:58:43.164Z,20.53
2022-09-01T14:01:17.321Z,20.51
2022-09-01T14:03:52.009Z,20.44
2022-09-01T14:06:25.444Z,20.41
2022-09-01T14:08:56.360Z,20.34
2022-09-01T14:11:27.684Z,20.27
2022-09-01T14:13:58.641Z,20.21
2022-09-01T14:16:29.431Z,20.19
2022-09-01T14:19:01.192Z,20.20
2022-09-01T14:21:31.945Z,20.18
2022-09-01T14:26:36.665Z,20.15
2022-09-01T14:29:08.384Z,20.15
2022-09-01T14:31:39.297Z,20.15
2022-09-01T14:34:11.906Z,20.14
2022-09-01T14:36:42.641Z,20.14
2022-09-01T14:39:16.597Z,20.10
2022-09-01T14:41:47.504Z,20.11
2022-09-01T14:44:18.391Z,20.13
2022-09-01T14:46:49.793Z,20.16
2022-09-01T14:49:22.738Z,20.18
2022-09-01T14:54:44.192Z,20.06
2022-09-01T14:57:38.035Z,20.05
2022-09-01T15:00:12.810Z,20.05
2022-09-01T15:02:45.472Z,20.00
2022-09-01T15:05:16.784Z,19.91
2022-09-01T15:07:48.382Z,19.82
2022-09-01T15:10:25.685Z,19.70
2022-09-01T15:12:59.622Z,19.61
2022-09-01T15:15:43.730Z,19.55
2022-09-01T15:18:20.783Z,19.50
2022-09-01T15:21:07.773Z,19.48
2022-09-01T15:24:01.705Z,19.44
2022-09-01T15:26:41.418Z,19.42
2022-09-01T15:29:46.214Z,19.39
2022-09-01T15:32:33.701Z,19.39
2022-09-01T15:35:04.063Z,19.38
2022-09-01T15:37:34.931Z,19.38
2022-09-01T15:40:07.693Z,19.38
2022-09-01T15:42:39.471Z,19.38
2022-09-01T15:45:14.052Z,19.35
2022-09-01T15:47:45.961Z,19.36
2022-09-01T15:50:21.574Z,19.38
2022-09-01T15:53:01.821Z,19.39
2022-09-01T15:55:42.364Z,19.36
2022-09-01T15:58:15.965Z,19.37
2022-09-01T16:00:47.982Z,19.41
2022-09-01T16:03:18.950Z,19.47
2022-09-01T16:05:49.758Z,19.52
2022-09-01T16:08:42.288Z,19.56
2022-09-01T16:11:13.501Z,19.59
2022-09-01T16:13:45.475Z,19.61
2022-09-01T16:16:42.826Z,19.59
2022-09-01T16:19:27.819Z,19.57
2022-09-01T16:25:26.901Z,19.53
2022-09-01T16:28:25.760Z,19.55
2022-09-01T16:31:26.225Z,19.61
2022-09-01T16:34:27.734Z,19.67
2022-09-01T16:37:20.858Z,19.71
2022-09-01T16:40:28.984Z,19.74
2022-09-01T16:43:25.105Z,19.76
2022-09-01T16:46:30.643Z,19.78
2022-09-01T16:49:28.709Z,19.81
2022-09-01T16:52:22.751Z,19.82
2022-09-01T16:55:24.667Z,19.82
2022-09-01T16:58:23.346Z,19.84
2022-09-01T17:01:19.805Z,19.88
2022-09-01T17:04:09.666Z,19.90
2022-09-01T17:10:11.681Z,19.87
2022-09-01T17:13:04.585Z,19.84
2022-09-01T17:16:09.104Z,19.82
2022-09-01T17:19:32.997Z,19.78
2022-09-01T17:22:44.766Z,19.73
2022-09-01T17:38:49.713Z,19.65
2022-09-01T17:41:48.712Z,19.61
2022-09-01T17:55:34.388Z,19.39
2022-09-01T17:58:34.084Z,19.32
2022-09-01T19:33:25.707Z,18.21
2022-09-01T19:36:16.308Z,18.20
2022-09-01T19:39:06.775Z,18.20
2022-09-01T19:42:07.833Z,18.18
2022-09-01T19:45:19.269Z,18.18
2022-09-01T19:48:05.575Z,18.17
2022-09-01T19:51:03.282Z,18.14
2022-09-01T19:53:56.290Z,18.10
2022-09-01T19:56:49.517Z,18.07
2022-09-01T19:59:28.999Z,18.05
2022-09-01T20:02:14.445Z,18.05
2022-09-01T20:04:57.290Z,18.02
2022-09-01T20:07:50.676Z,18.00
2022-09-01T20:10:59.340Z,17.98
2022-09-01T20:13:44.362Z,17.95
2022-09-01T20:16:41.985Z,17.93
2022-09-01T20:19:18.389Z,17.91
2022-09-01T20:21:49.877Z,17.88
2022-09-01T20:24:40.210Z,17.87
2022-09-01T20:27:19.360Z,17.86
2022-09-01T20:30:17.230Z,17.84
2022-09-01T20:33:01.192Z,17.80
2022-09-01T20:35:45.368Z,17.76
2022-09-01T20:39:04.301Z,17.64
2022-09-01T20:41:50.651Z,17.57
2022-09-01T20:44:44.383Z,17.53
2022-09-01T20:47:15.214Z,17.52
2022-09-01T20:49:45.953Z,17.49
2022-09-01T20:52:29.311Z,17.46
2022-09-01T20:55:42.126Z,17.44
2022-09-01T20:58:28.557Z,17.42
2022-09-01T21:01:32.788Z,17.38
2022-09-01T21:04:30.589Z,17.29
2022-09-01T21:07:31.385Z,17.17
2022-09-01T21:10:13.992Z,17.07
2022-09-01T21:12:58.581Z,17.04
2022-09-01T21:16:05.341Z,17.04
2022-09-01T21:19:13.662Z,17.06
2022-09-01T21:22:02.630Z,16.95
2022-09-01T21:24:33.295Z,16.80
2022-09-01T21:27:08.972Z,16.70
2022-09-01T21:29:44.081Z,16.70
2022-09-01T21:32:16.462Z,16.72
2022-09-01T21:34:47.932Z,16.75
2022-09-01T21:37:19.809Z,16.76
2022-09-01T21:39:54.421Z,16.76
2022-09-01T21:42:29.043Z,16.74
2022-09-01T21:45:00.176Z,16.73
2022-09-01T21:47:31.291Z,16.70
2022-09-01T21:50:01.976Z,16.70
2022-09-01T21:52:32.578Z,16.71
2022-09-01T21:55:03.081Z,16.70
2022-09-01T21:57:33.923Z,16.64
2022-09-01T22:00:15.344Z,16.55
2022-09-01T22:02:47.047Z,16.50
2022-09-01T22:05:17.769Z,16.44
2022-09-01T22:07:49.514Z,16.41
2022-09-01T22:10:22.285Z,16.35
2022-09-01T22:12:54.202Z,16.29
2022-09-01T22:15:26.958Z,16.21
2022-09-01T22:17:59.245Z,16.20
2022-09-01T22:20:32.478Z,16.18
2022-09-01T22:23:03.824Z,16.14
2022-09-01T22:25:36.134Z,16.15
2022-09-01T22:28:07.669Z,16.13
2022-09-01T22:30:38.394Z,16.12
2022-09-01T22:33:10.315Z,16.13
2022-09-01T22:35:45.928Z,16.05
2022-09-01T22:38:17.410Z,15.95
2022-09-01T22:40:53.116Z,15.94
2022-09-01T22:43:25.399Z,15.95
2022-09-01T22:45:59.862Z,15.96
2022-09-01T22:48:30.887Z,15.93
2022-09-01T22:51:06.403Z,15.83
2022-09-01T22:53:39.739Z,15.73
2022-09-01T22:56:17.319Z,15.72
2022-09-01T22:58:49.915Z,15.73
2022-09-01T23:01:22.937Z,15.75
2022-09-01T23:03:54.864Z,15.72
2022-09-01T23:06:28.128Z,15.69
2022-09-01T23:08:59.702Z,15.70
2022-09-01T23:11:30.991Z,15.70
2022-09-01T23:14:01.556Z,15.70
2022-09-01T23:16:32.388Z,15.72
2022-09-01T23:19:03.642Z,15.75
2022-09-01T23:21:37.854Z,15.73
2022-09-01T23:24:08.724Z,15.62
2022-09-01T23:26:39.087Z,15.52
2022-09-01T23:29:10.112Z,15.48
2022-09-01T23:31:41.462Z,15.48
2022-09-01T23:34:13.691Z,15.46
2022-09-01T23:36:44.262Z,15.32
2022-09-01T23:39:14.782Z,15.16
2022-09-01T23:41:46.344Z,15.04
2022-09-01T23:44:17.074Z,15.01
2022-09-01T23:46:48.742Z,14.96
2022-09-01T23:49:20.971Z,14.92
2022-09-01T23:51:55.452Z,14.82
2022-09-01T23:54:26.226Z,14.68
2022-09-01T23:56:56.792Z,14.66
2022-09-01T23:59:29.941Z,14.64
